Hafnia Soya — 9V3282 — position and weather

sailwx.info

Track history (hours):
 
Tides and Currents Weather Stations Pressure Air Temp Water Temp Dewpoint Dewpoint Depression Visibility Wind Speed Wind Dir Waves Ship Positions

Hafnia Soya

Last reported at 2018-Feb-26 01:59 UTC. Time now 2018-Feb-26 02:08 UTC.
Position N 55°02' W 005°35'.

Length 184 m; draft 8 m.

Type: Tanker. MMSI: 566583000.

Date/timePositionNaut miles runAvg speedWind from/ knotsBaromVisibWave heightAir tempDewpointWater temp
2018-Feb-26 01:59N 55°02' W 005°35'4 8.9
2018-Feb-26 01:30N 54°59' W 005°31'5 9.3
2018-Feb-26 01:00N 54°55' W 005°26'5 9.6
2018-Feb-26 00:30N 54°51' W 005°21'5 9.8
2018-Feb-26 00:00N 54°47' W 005°16'510.1
2018-Feb-25 23:30N 54°43' W 005°12'5 9.9
2018-Feb-25 23:00N 54°38' W 005°09'510.3
2018-Feb-25 22:30N 54°33' W 005°06'5 9.7
2018-Feb-25 22:00N 54°29' W 005°04'5 9.1
2018-Feb-25 21:29N 54°24' W 005°06'4 9.2
2018-Feb-25 21:00N 54°20' W 005°07'5 9.1
2018-Feb-25 20:30N 54°15' W 005°09'4 8.8
2018-Feb-25 20:00N 54°11' W 005°10'6 8.3
2018-Feb-25 19:14N 54°05' W 005°14'2 8.4
2018-Feb-25 19:00N 54°03' W 005°15'4 8.0
2018-Feb-25 18:30N 53°59' W 005°18'37 8.4
2018-Feb-25 14:04N 53°27' W 005°51'1 8.7
2018-Feb-25 14:00N 53°27' W 005°52'4 8.8
2018-Feb-25 13:30N 53°24' W 005°56'5 9.0
2018-Feb-25 13:00N 53°21' W 006°02'4 8.4
2018-Feb-25 12:30N 53°21' W 006°09'2 2.5
2018-Feb-25 11:43N 53°21' W 006°12'0 0.0
2018-Feb-25 11:10N 53°21' W 006°12'0 0.0
2018-Feb-25 10:37N 53°21' W 006°12'0 0.0
2018-Feb-25 10:28N 53°21' W 006°12'0 0.0
2018-Feb-25 09:58N 53°21' W 006°12'0 0.0
2018-Feb-25 09:28N 53°21' W 006°12'0 0.0
2018-Feb-25 08:55N 53°21' W 006°12'0 0.0
2018-Feb-25 08:19N 53°21' W 006°12'0 0.0
2018-Feb-25 07:49N 53°21' W 006°12'0 0.0
2018-Feb-25 07:16N 53°21' W 006°12'0 0.0
2018-Feb-25 06:40N 53°21' W 006°12'0 0.0
2018-Feb-25 06:28N 53°21' W 006°12'0 0.0
2018-Feb-25 05:55N 53°21' W 006°12'0 0.0
2018-Feb-25 05:25N 53°21' W 006°12'0 0.0
2018-Feb-25 04:58N 53°21' W 006°12'0 0.0
2018-Feb-25 04:25N 53°21' W 006°12'0 0.0
2018-Feb-25 03:52N 53°21' W 006°12'0 0.0
2018-Feb-25 03:16N 53°21' W 006°12'0 0.0
2018-Feb-25 02:43N 53°21' W 006°12'0 0.0
2018-Feb-25 02:28N 53°21' W 006°12'0 0.0
2018-Feb-25 01:55N 53°21' W 006°12'0 0.0
2018-Feb-25 01:28N 53°21' W 006°12'0 0.0
2018-Feb-25 00:19N 53°21' W 006°12'0 0.0
2018-Feb-24 23:52N 53°21' W 006°12'0 0.0
2018-Feb-24 23:13N 53°21' W 006°12'0 0.0
2018-Feb-24 22:43N 53°21' W 006°12'0 0.0
2018-Feb-24 22:04N 53°21' W 006°12'0 0.0
2018-Feb-24 21:55N 53°21' W 006°12'0 0.0
2018-Feb-24 21:22N 53°21' W 006°12'0 0.0
2018-Feb-24 20:58N 53°21' W 006°12'0 0.0
2018-Feb-24 20:25N 53°21' W 006°12'0 0.0
2018-Feb-24 19:58N 53°21' W 006°12'0 0.0
2018-Feb-24 19:25N 53°21' W 006°12'0 0.0
2018-Feb-24 18:52N 53°21' W 006°12'0 0.0
2018-Feb-24 18:19N 53°21' W 006°12'0 0.0
2018-Feb-24 17:49N 53°21' W 006°12'0 0.0
2018-Feb-24 17:16N 53°21' W 006°12'0 0.0
2018-Feb-24 16:46N 53°21' W 006°12'0 0.0
2018-Feb-24 16:13N 53°21' W 006°12'0 0.0
2018-Feb-24 15:43N 53°21' W 006°12'0 0.0
2018-Feb-24 15:07N 53°21' W 006°12'0 0.0
2018-Feb-24 14:58N 53°21' W 006°12'0 0.0
2018-Feb-24 14:28N 53°21' W 006°12'0 0.0
2018-Feb-24 13:55N 53°21' W 006°12'0 0.0
2018-Feb-24 13:28N 53°21' W 006°12'0 0.0
2018-Feb-24 12:55N 53°21' W 006°12'0 0.0
2018-Feb-24 12:28N 53°21' W 006°12'0 0.0
2018-Feb-24 11:58N 53°21' W 006°12'0 0.0
2018-Feb-24 11:25N 53°21' W 006°12'0 0.0
2018-Feb-24 10:52N 53°21' W 006°12'0 0.0
2018-Feb-24 10:13N 53°21' W 006°12'0 0.0
2018-Feb-24 09:55N 53°21' W 006°12'0 0.0
2018-Feb-24 09:25N 53°21' W 006°12'0 0.0
2018-Feb-24 08:52N 53°21' W 006°12'0 0.0
2018-Feb-24 08:28N 53°21' W 006°12'0 0.0
2018-Feb-24 07:52N 53°21' W 006°12'0 0.0
2018-Feb-24 07:28N 53°21' W 006°12'0 0.0
2018-Feb-24 06:55N 53°21' W 006°12'0 0.0
2018-Feb-24 06:28N 53°21' W 006°12'0 0.0
2018-Feb-24 05:55N 53°21' W 006°12'0 0.0
2018-Feb-24 05:25N 53°21' W 006°12'0 0.0
2018-Feb-24 04:52N 53°21' W 006°12'0 0.0
2018-Feb-24 04:25N 53°21' W 006°12'0 0.0
2018-Feb-24 03:52N 53°21' W 006°12'0 0.0
2018-Feb-24 03:19N 53°21' W 006°12'0 0.0
2018-Feb-24 02:46N 53°21' W 006°12'0 0.0
2018-Feb-24 02:13N 53°21' W 006°12'0 0.0
2018-Feb-24 01:40N 53°21' W 006°12'0 0.0
2018-Feb-24 00:55N 53°21' W 006°12'0 0.0
2018-Feb-24 00:28N 53°21' W 006°12'0 0.0
2018-Feb-23 23:58N 53°21' W 006°12'0 0.0
2018-Feb-23 23:28N 53°21' W 006°12'0 0.0
2018-Feb-23 22:34N 53°21' W 006°12'0 0.0
2018-Feb-23 22:28N 53°21' W 006°12'0 0.0
2018-Feb-23 06:49N 53°21' W 006°12'0 0.0
2018-Feb-23 06:13N 53°21' W 006°12'0 0.0
2018-Feb-23 05:43N 53°21' W 006°12'0 0.0
2018-Feb-23 05:13N 53°21' W 006°12'0 0.0
2018-Feb-23 04:43N 53°21' W 006°12'0 0.0
2018-Feb-23 04:28N 53°21' W 006°12'0 0.0
2018-Feb-23 03:58N 53°21' W 006°12'0 0.0
2018-Feb-23 03:29N 53°21' W 006°12'1 3.1
2018-Feb-23 03:00N 53°21' W 006°10'3 6.9
2018-Feb-23 02:30N 53°20' W 006°04'1 2.5
2018-Feb-23 02:00N 53°19' W 006°05'0 0.4
2018-Feb-23 01:28N 53°19' W 006°05'0 0.0
2018-Feb-23 00:58N 53°19' W 006°05'0 0.0
2018-Feb-23 00:25N 53°19' W 006°05'0 0.0
2018-Feb-22 23:58N 53°19' W 006°05'0 0.0
2018-Feb-22 23:25N 53°19' W 006°05'0 0.0
2018-Feb-22 22:55N 53°19' W 006°05'0 0.1
2018-Feb-22 22:22N 53°19' W 006°05'0 0.0
2018-Feb-22 21:55N 53°19' W 006°05'0 0.0
2018-Feb-22 21:25N 53°19' W 006°05'0 0.0
2018-Feb-22 20:55N 53°19' W 006°05'0 0.0
2018-Feb-22 20:16N 53°19' W 006°05'0 0.1
2018-Feb-22 19:55N 53°19' W 006°05'0 0.1
2018-Feb-22 19:28N 53°19' W 006°05'0 0.1
2018-Feb-22 18:58N 53°19' W 006°05'0 0.0
2018-Feb-22 18:28N 53°19' W 006°05'0 0.0
2018-Feb-22 17:55N 53°19' W 006°05'0 0.2
2018-Feb-22 17:28N 53°19' W 006°05'0 0.0
2018-Feb-22 16:58N 53°19' W 006°05'0 0.1
2018-Feb-22 16:28N 53°19' W 006°05'0 0.1
2018-Feb-22 15:55N 53°19' W 006°05'0 0.0
2018-Feb-22 15:28N 53°19' W 006°05'0 0.0
2018-Feb-22 14:58N 53°19' W 006°05'0 0.2
2018-Feb-22 14:30N 53°19' W 006°05'2 4.6
2018-Feb-22 14:00N 53°21' W 006°02'4 8.5
2018-Feb-22 13:30N 53°23' W 005°56'611.2
2018-Feb-22 13:00N 53°23' W 005°47'612.3
2018-Feb-22 12:30N 53°19' W 005°39'714.2
2018-Feb-22 12:00N 53°12' W 005°34'815.0
2018-Feb-22 11:30N 53°05' W 005°32'815.1
2018-Feb-22 11:00N 52°57' W 005°31'814.9
2018-Feb-22 10:30N 52°50' W 005°30'714.3
2018-Feb-22 09:59N 52°43' W 005°31'6510.7
2018-Feb-22 03:54N 51°37' W 005°35'512.3
2018-Feb-22 03:30N 51°38' W 005°27'612.4
2018-Feb-22 03:00N 51°39' W 005°18'510.2
2018-Feb-22 02:30N 51°41' W 005°10'4 8.1
2018-Feb-22 02:00N 51°42' W 005°04'0 0.7
2018-Feb-22 01:29N 51°42' W 005°03'0 0.0
2018-Feb-22 00:59N 51°42' W 005°03'0 0.0
2018-Feb-22 00:29N 51°42' W 005°03'0 0.0
2018-Feb-21 23:53N 51°42' W 005°03'0 0.0
2018-Feb-21 23:23N 51°42' W 005°03'0 0.0
2018-Feb-21 22:41N 51°42' W 005°03'0 0.0
2018-Feb-21 22:29N 51°42' W 005°03'0 0.0
2018-Feb-21 21:59N 51°42' W 005°03'0 0.0
2018-Feb-21 21:29N 51°42' W 005°03'0 0.0
2018-Feb-21 20:59N 51°42' W 005°03'0 0.0
2018-Feb-21 20:17N 51°42' W 005°03'0 0.0
2018-Feb-21 19:59N 51°42' W 005°03'0 0.0
2018-Feb-21 19:29N 51°42' W 005°03'0 0.0
2018-Feb-21 18:53N 51°42' W 005°03'0 0.0
2018-Feb-21 18:29N 51°42' W 005°03'0 0.0
2018-Feb-21 17:59N 51°42' W 005°03'0 0.0
2018-Feb-21 17:29N 51°42' W 005°03'0 0.0
2018-Feb-21 16:59N 51°42' W 005°03'0 0.0
2018-Feb-21 16:29N 51°42' W 005°03'0 0.0
2018-Feb-21 15:53N 51°42' W 005°03'0 0.0
2018-Feb-21 15:29N 51°42' W 005°03'0 0.0
2018-Feb-21 14:59N 51°42' W 005°03'0 0.0
2018-Feb-21 14:23N 51°42' W 005°03'0 0.0
2018-Feb-21 13:35N 51°42' W 005°03'0 0.0
2018-Feb-21 13:29N 51°42' W 005°03'0 0.0
2018-Feb-21 12:59N 51°42' W 005°03'0 0.0
2018-Feb-21 12:29N 51°42' W 005°03'0 0.0
2018-Feb-21 11:59N 51°42' W 005°03'0 0.0
2018-Feb-21 11:17N 51°42' W 005°03'0 0.0
2018-Feb-21 10:59N 51°42' W 005°03'0 0.0
2018-Feb-21 10:29N 51°42' W 005°03'0 0.0
2018-Feb-21 09:59N 51°42' W 005°03'0 0.0
2018-Feb-21 09:29N 51°42' W 005°03'0 0.0
2018-Feb-21 08:59N 51°42' W 005°03'0 0.0
2018-Feb-21 08:29N 51°42' W 005°03'0 0.0
2018-Feb-21 07:59N 51°42' W 005°03'0 0.0
2018-Feb-21 07:23N 51°42' W 005°03'0 0.0
2018-Feb-21 06:59N 51°42' W 005°03'0 0.0
2018-Feb-21 06:23N 51°42' W 005°03'0 0.0
2018-Feb-21 05:59N 51°42' W 005°03'0 0.0
2018-Feb-21 05:29N 51°42' W 005°03'0 0.0
2018-Feb-21 04:59N 51°42' W 005°03'0 0.0
2018-Feb-21 04:23N 51°42' W 005°03'0 0.0
2018-Feb-21 03:59N 51°42' W 005°03'0 0.0
2018-Feb-21 03:29N 51°42' W 005°03'0 0.0
2018-Feb-21 02:59N 51°42' W 005°03'0 0.0
2018-Feb-21 02:23N 51°42' W 005°03'0 0.0
2018-Feb-21 01:59N 51°42' W 005°03'0 0.0
2018-Feb-21 01:29N 51°42' W 005°03'0 0.0
2018-Feb-21 00:59N 51°42' W 005°03'0 0.0
2018-Feb-21 00:29N 51°42' W 005°03'0 0.4
2018-Feb-21 00:00N 51°42' W 005°03'2 3.4
2018-Feb-20 23:30N 51°42' W 005°06'4 7.6
2018-Feb-20 23:00N 51°39' W 005°11'4 7.6
2018-Feb-20 22:30N 51°37' W 005°16'4 7.4
2018-Feb-20 22:00N 51°40' W 005°21'4 7.3
2018-Feb-20 21:30N 51°43' W 005°22'4 7.1
2018-Feb-20 20:56N 51°47' W 005°19'1 0.2
2018-Feb-20 13:38N 51°47' W 005°17'0 0.1
2018-Feb-20 13:25N 51°47' W 005°17'0 0.0
2018-Feb-19 23:50N 51°47' W 005°17'0 0.2
2018-Feb-19 23:29N 51°47' W 005°17'2 3.3
2018-Feb-19 23:01N 51°47' W 005°20'510.1
2018-Feb-19 22:30N 51°43' W 005°24'613.0
2018-Feb-19 22:00N 51°36' W 005°25'713.3
2018-Feb-19 21:31N 51°30' W 005°24'712.9
2018-Feb-19 21:00N 51°23' W 005°24'612.6
2018-Feb-19 20:30N 51°17' W 005°25'612.8
2018-Feb-19 20:00N 51°11' W 005°28'612.8
2018-Feb-19 19:30N 51°05' W 005°31'713.1
2018-Feb-19 19:00N 50°59' W 005°35'713.5
2018-Feb-19 18:30N 50°52' W 005°38'713.4
2018-Feb-19 18:00N 50°46' W 005°42'713.5
2018-Feb-19 17:27N 50°39' W 005°46'613.4
2018-Feb-19 17:00N 50°33' W 005°49'713.4
2018-Feb-19 16:30N 50°27' W 005°52'713.3
2018-Feb-19 16:00N 50°20' W 005°55'713.7
2018-Feb-19 15:30N 50°13' W 005°54'713.2
2018-Feb-19 14:58N 50°06' W 005°55'613.2
2018-Feb-19 14:30N 50°00' W 005°55'1411.4
2018-Feb-19 13:17N 49°50' W 005°40'1612.6
2018-Feb-19 12:00N 49°50' W 005°15'612.2
2018-Feb-19 11:30N 49°50' W 005°05'811.7
2018-Feb-19 10:48N 49°50' W 004°53'511.4
2018-Feb-19 10:24N 49°50' W 004°46'511.1
2018-Feb-19 09:58N 49°51' W 004°38'510.8
2018-Feb-19 09:29N 49°52' W 004°30'510.4
2018-Feb-19 09:00N 49°52' W 004°23'610.0
2018-Feb-19 08:24N 49°53' W 004°13'5 9.7
2018-Feb-19 07:51N 49°53' W 004°05'6 9.5
2018-Feb-19 07:13N 49°54' W 003°56'2 9.6
2018-Feb-19 06:59N 49°54' W 003°52'5 9.8
2018-Feb-19 06:30N 49°55' W 003°45'510.2
2018-Feb-19 06:00N 49°55' W 003°37'510.5
2018-Feb-19 05:30N 49°56' W 003°29'611.4
2018-Feb-19 05:00N 49°56' W 003°20'612.3
2018-Feb-19 04:30N 49°59' W 003°11'613.0
2018-Feb-19 04:00N 49°60' W 003°01'713.7
2018-Feb-19 03:30N 50°01' W 002°51'714.1
2018-Feb-19 03:00N 50°03' W 002°40'714.1
2018-Feb-19 02:30N 50°04' W 002°30'1913.0
2018-Feb-19 01:01N 50°10' W 002°01'012.7
2018-Feb-19 01:00N 50°10' W 002°00'611.2
2018-Feb-19 00:31N 50°11' W 001°52'510.3
2018-Feb-19 00:01N 50°13' W 001°44'5 9.5
2018-Feb-18 23:29N 50°14' W 001°37'4 8.8
2018-Feb-18 23:01N 50°15' W 001°31'4 8.3
2018-Feb-18 22:30N 50°16' W 001°24'5 8.0
2018-Feb-18 21:55N 50°18' W 001°17'4 7.9
2018-Feb-18 21:28N 50°18' W 001°12'3410.5
2018-Feb-18 18:15N 50°28' W 000°21'312.9
2018-Feb-18 18:00N 50°29' W 000°16'713.1
2018-Feb-18 17:30N 50°30' W 000°06'713.2
2018-Feb-18 17:00N 50°32' E 000°04'713.2
2018-Feb-18 16:30N 50°34' E 000°14'613.0
2018-Feb-18 16:00N 50°36' E 000°24'612.6
2018-Feb-18 15:30N 50°38' E 000°33'611.9
2018-Feb-18 15:00N 50°41' E 000°41'611.3
2018-Feb-18 14:30N 50°45' E 000°48'510.5
2018-Feb-18 14:00N 50°48' E 000°55'5 9.9
2018-Feb-18 13:30N 50°51' E 001°01'7 9.5
2018-Feb-18 12:48N 50°55' E 001°09'3 9.5
2018-Feb-18 12:26N 50°57' E 001°14'5 9.5
2018-Feb-18 11:57N 51°00' E 001°19'510.1
2018-Feb-18 11:30N 51°03' E 001°25'611.8
2018-Feb-18 11:00N 51°07' E 001°32'713.0
2018-Feb-18 10:30N 51°11' E 001°40'713.8
2018-Feb-18 10:01N 51°16' E 001°47'714.6
2018-Feb-18 09:31N 51°22' E 001°52'714.2
2018-Feb-18 09:00N 51°29' E 001°58'713.0
2018-Feb-18 08:29N 51°34' E 002°05'612.8
2018-Feb-18 08:00N 51°38' E 002°12'612.4
2018-Feb-18 07:30N 51°43' E 002°18'611.8
2018-Feb-18 06:59N 51°47' E 002°25'611.1
2018-Feb-18 06:29N 51°52' E 002°31'610.6
2018-Feb-18 05:57N 51°57' E 002°33'17811.1
2018-Feb-17 13:52N 54°34' E 004°55'511.7
2018-Feb-17 13:28N 54°38' E 004°59'511.7
2018-Feb-17 13:00N 54°42' E 005°03'611.7
2018-Feb-17 12:30N 54°47' E 005°08'611.5
2018-Feb-17 12:00N 54°52' E 005°13'611.4
2018-Feb-17 11:30N 54°57' E 005°18'24810.1
2018-Feb-16 10:53N 57°50' E 010°41'3 8.8
2018-Feb-16 10:31N 57°48' E 010°46'5 9.2
2018-Feb-16 10:01N 57°45' E 010°52'611.8
2018-Feb-16 09:31N 57°41' E 011°00'611.9
2018-Feb-16 09:00N 57°37' E 011°08'612.3
2018-Feb-16 08:30N 57°32' E 011°16'612.6
2018-Feb-16 08:00N 57°28' E 011°25'612.5
2018-Feb-16 07:30N 57°22' E 011°29'611.5
2018-Feb-16 07:00N 57°17' E 011°33'611.1
2018-Feb-16 06:30N 57°12' E 011°36'510.8
2018-Feb-16 06:00N 57°07' E 011°40'611.2
2018-Feb-16 05:30N 57°01' E 011°43'  
Track history (hours):
 
Tides and Currents Weather Stations Pressure Air Temp Water Temp Dewpoint Dewpoint Depression Visibility Wind Speed Wind Dir Waves Ship Positions

Hafnia Soya

Last reported at 2018-Feb-26 01:59 UTC. Time now 2018-Feb-26 02:08 UTC.
Position N 55°02' W 005°35'.

Length 184 m; draft 8 m.

Type: Tanker. MMSI: 566583000.

Date/timePositionNaut miles runAvg speedWind from/ knotsBaromVisibWave heightAir tempDewpointWater temp
2018-Feb-26 01:59N 55°02' W 005°35'4 8.9
2018-Feb-26 01:30N 54°59' W 005°31'5 9.3
2018-Feb-26 01:00N 54°55' W 005°26'5 9.6
2018-Feb-26 00:30N 54°51' W 005°21'5 9.8
2018-Feb-26 00:00N 54°47' W 005°16'510.1
2018-Feb-25 23:30N 54°43' W 005°12'5 9.9
2018-Feb-25 23:00N 54°38' W 005°09'510.3
2018-Feb-25 22:30N 54°33' W 005°06'5 9.7
2018-Feb-25 22:00N 54°29' W 005°04'5 9.1
2018-Feb-25 21:29N 54°24' W 005°06'4 9.2
2018-Feb-25 21:00N 54°20' W 005°07'5 9.1
2018-Feb-25 20:30N 54°15' W 005°09'4 8.8
2018-Feb-25 20:00N 54°11' W 005°10'6 8.3
2018-Feb-25 19:14N 54°05' W 005°14'2 8.4
2018-Feb-25 19:00N 54°03' W 005°15'4 8.0
2018-Feb-25 18:30N 53°59' W 005°18'37 8.4
2018-Feb-25 14:04N 53°27' W 005°51'1 8.7
2018-Feb-25 14:00N 53°27' W 005°52'4 8.8
2018-Feb-25 13:30N 53°24' W 005°56'5 9.0
2018-Feb-25 13:00N 53°21' W 006°02'4 8.4
2018-Feb-25 12:30N 53°21' W 006°09'2 2.5
2018-Feb-25 11:43N 53°21' W 006°12'0 0.0
2018-Feb-25 11:10N 53°21' W 006°12'0 0.0
2018-Feb-25 10:37N 53°21' W 006°12'0 0.0
2018-Feb-25 10:28N 53°21' W 006°12'0 0.0
2018-Feb-25 09:58N 53°21' W 006°12'0 0.0
2018-Feb-25 09:28N 53°21' W 006°12'0 0.0
2018-Feb-25 08:55N 53°21' W 006°12'0 0.0
2018-Feb-25 08:19N 53°21' W 006°12'0 0.0
2018-Feb-25 07:49N 53°21' W 006°12'0 0.0
2018-Feb-25 07:16N 53°21' W 006°12'0 0.0
2018-Feb-25 06:40N 53°21' W 006°12'0 0.0
2018-Feb-25 06:28N 53°21' W 006°12'0 0.0
2018-Feb-25 05:55N 53°21' W 006°12'0 0.0
2018-Feb-25 05:25N 53°21' W 006°12'0 0.0
2018-Feb-25 04:58N 53°21' W 006°12'0 0.0
2018-Feb-25 04:25N 53°21' W 006°12'0 0.0
2018-Feb-25 03:52N 53°21' W 006°12'0 0.0
2018-Feb-25 03:16N 53°21' W 006°12'0 0.0
2018-Feb-25 02:43N 53°21' W 006°12'0 0.0
2018-Feb-25 02:28N 53°21' W 006°12'0 0.0
2018-Feb-25 01:55N 53°21' W 006°12'0 0.0
2018-Feb-25 01:28N 53°21' W 006°12'0 0.0
2018-Feb-25 00:19N 53°21' W 006°12'0 0.0
2018-Feb-24 23:52N 53°21' W 006°12'0 0.0
2018-Feb-24 23:13N 53°21' W 006°12'0 0.0
2018-Feb-24 22:43N 53°21' W 006°12'0 0.0
2018-Feb-24 22:04N 53°21' W 006°12'0 0.0
2018-Feb-24 21:55N 53°21' W 006°12'0 0.0
2018-Feb-24 21:22N 53°21' W 006°12'0 0.0
2018-Feb-24 20:58N 53°21' W 006°12'0 0.0
2018-Feb-24 20:25N 53°21' W 006°12'0 0.0
2018-Feb-24 19:58N 53°21' W 006°12'0 0.0
2018-Feb-24 19:25N 53°21' W 006°12'0 0.0
2018-Feb-24 18:52N 53°21' W 006°12'0 0.0
2018-Feb-24 18:19N 53°21' W 006°12'0 0.0
2018-Feb-24 17:49N 53°21' W 006°12'0 0.0
2018-Feb-24 17:16N 53°21' W 006°12'0 0.0
2018-Feb-24 16:46N 53°21' W 006°12'0 0.0
2018-Feb-24 16:13N 53°21' W 006°12'0 0.0
2018-Feb-24 15:43N 53°21' W 006°12'0 0.0
2018-Feb-24 15:07N 53°21' W 006°12'0 0.0
2018-Feb-24 14:58N 53°21' W 006°12'0 0.0
2018-Feb-24 14:28N 53°21' W 006°12'0 0.0
2018-Feb-24 13:55N 53°21' W 006°12'0 0.0
2018-Feb-24 13:28N 53°21' W 006°12'0 0.0
2018-Feb-24 12:55N 53°21' W 006°12'0 0.0
2018-Feb-24 12:28N 53°21' W 006°12'0 0.0
2018-Feb-24 11:58N 53°21' W 006°12'0 0.0
2018-Feb-24 11:25N 53°21' W 006°12'0 0.0
2018-Feb-24 10:52N 53°21' W 006°12'0 0.0
2018-Feb-24 10:13N 53°21' W 006°12'0 0.0
2018-Feb-24 09:55N 53°21' W 006°12'0 0.0
2018-Feb-24 09:25N 53°21' W 006°12'0 0.0
2018-Feb-24 08:52N 53°21' W 006°12'0 0.0
2018-Feb-24 08:28N 53°21' W 006°12'0 0.0
2018-Feb-24 07:52N 53°21' W 006°12'0 0.0
2018-Feb-24 07:28N 53°21' W 006°12'0 0.0
2018-Feb-24 06:55N 53°21' W 006°12'0 0.0
2018-Feb-24 06:28N 53°21' W 006°12'0 0.0
2018-Feb-24 05:55N 53°21' W 006°12'0 0.0
2018-Feb-24 05:25N 53°21' W 006°12'0 0.0
2018-Feb-24 04:52N 53°21' W 006°12'0 0.0
2018-Feb-24 04:25N 53°21' W 006°12'0 0.0
2018-Feb-24 03:52N 53°21' W 006°12'0 0.0
2018-Feb-24 03:19N 53°21' W 006°12'0 0.0
2018-Feb-24 02:46N 53°21' W 006°12'0 0.0
2018-Feb-24 02:13N 53°21' W 006°12'0 0.0
2018-Feb-24 01:40N 53°21' W 006°12'0 0.0
2018-Feb-24 00:55N 53°21' W 006°12'0 0.0
2018-Feb-24 00:28N 53°21' W 006°12'0 0.0
2018-Feb-23 23:58N 53°21' W 006°12'0 0.0
2018-Feb-23 23:28N 53°21' W 006°12'0 0.0
2018-Feb-23 22:34N 53°21' W 006°12'0 0.0
2018-Feb-23 22:28N 53°21' W 006°12'0 0.0
2018-Feb-23 06:49N 53°21' W 006°12'0 0.0
2018-Feb-23 06:13N 53°21' W 006°12'0 0.0
2018-Feb-23 05:43N 53°21' W 006°12'0 0.0
2018-Feb-23 05:13N 53°21' W 006°12'0 0.0
2018-Feb-23 04:43N 53°21' W 006°12'0 0.0
2018-Feb-23 04:28N 53°21' W 006°12'0 0.0
2018-Feb-23 03:58N 53°21' W 006°12'0 0.0
2018-Feb-23 03:29N 53°21' W 006°12'1 3.1
2018-Feb-23 03:00N 53°21' W 006°10'3 6.9
2018-Feb-23 02:30N 53°20' W 006°04'1 2.5
2018-Feb-23 02:00N 53°19' W 006°05'0 0.4
2018-Feb-23 01:28N 53°19' W 006°05'0 0.0
2018-Feb-23 00:58N 53°19' W 006°05'0 0.0
2018-Feb-23 00:25N 53°19' W 006°05'0 0.0
2018-Feb-22 23:58N 53°19' W 006°05'0 0.0
2018-Feb-22 23:25N 53°19' W 006°05'0 0.0
2018-Feb-22 22:55N 53°19' W 006°05'0 0.1
2018-Feb-22 22:22N 53°19' W 006°05'0 0.0
2018-Feb-22 21:55N 53°19' W 006°05'0 0.0
2018-Feb-22 21:25N 53°19' W 006°05'0 0.0
2018-Feb-22 20:55N 53°19' W 006°05'0 0.0
2018-Feb-22 20:16N 53°19' W 006°05'0 0.1
2018-Feb-22 19:55N 53°19' W 006°05'0 0.1
2018-Feb-22 19:28N 53°19' W 006°05'0 0.1
2018-Feb-22 18:58N 53°19' W 006°05'0 0.0
2018-Feb-22 18:28N 53°19' W 006°05'0 0.0
2018-Feb-22 17:55N 53°19' W 006°05'0 0.2
2018-Feb-22 17:28N 53°19' W 006°05'0 0.0
2018-Feb-22 16:58N 53°19' W 006°05'0 0.1
2018-Feb-22 16:28N 53°19' W 006°05'0 0.1
2018-Feb-22 15:55N 53°19' W 006°05'0 0.0
2018-Feb-22 15:28N 53°19' W 006°05'0 0.0
2018-Feb-22 14:58N 53°19' W 006°05'0 0.2
2018-Feb-22 14:30N 53°19' W 006°05'2 4.6
2018-Feb-22 14:00N 53°21' W 006°02'4 8.5
2018-Feb-22 13:30N 53°23' W 005°56'611.2
2018-Feb-22 13:00N 53°23' W 005°47'612.3
2018-Feb-22 12:30N 53°19' W 005°39'714.2
2018-Feb-22 12:00N 53°12' W 005°34'815.0
2018-Feb-22 11:30N 53°05' W 005°32'815.1
2018-Feb-22 11:00N 52°57' W 005°31'814.9
2018-Feb-22 10:30N 52°50' W 005°30'714.3
2018-Feb-22 09:59N 52°43' W 005°31'6510.7
2018-Feb-22 03:54N 51°37' W 005°35'512.3
2018-Feb-22 03:30N 51°38' W 005°27'612.4
2018-Feb-22 03:00N 51°39' W 005°18'510.2
2018-Feb-22 02:30N 51°41' W 005°10'4 8.1
2018-Feb-22 02:00N 51°42' W 005°04'0 0.7
2018-Feb-22 01:29N 51°42' W 005°03'0 0.0
2018-Feb-22 00:59N 51°42' W 005°03'0 0.0
2018-Feb-22 00:29N 51°42' W 005°03'0 0.0
2018-Feb-21 23:53N 51°42' W 005°03'0 0.0
2018-Feb-21 23:23N 51°42' W 005°03'0 0.0
2018-Feb-21 22:41N 51°42' W 005°03'0 0.0
2018-Feb-21 22:29N 51°42' W 005°03'0 0.0
2018-Feb-21 21:59N 51°42' W 005°03'0 0.0
2018-Feb-21 21:29N 51°42' W 005°03'0 0.0
2018-Feb-21 20:59N 51°42' W 005°03'0 0.0
2018-Feb-21 20:17N 51°42' W 005°03'0 0.0
2018-Feb-21 19:59N 51°42' W 005°03'0 0.0
2018-Feb-21 19:29N 51°42' W 005°03'0 0.0
2018-Feb-21 18:53N 51°42' W 005°03'0 0.0
2018-Feb-21 18:29N 51°42' W 005°03'0 0.0
2018-Feb-21 17:59N 51°42' W 005°03'0 0.0
2018-Feb-21 17:29N 51°42' W 005°03'0 0.0
2018-Feb-21 16:59N 51°42' W 005°03'0 0.0
2018-Feb-21 16:29N 51°42' W 005°03'0 0.0
2018-Feb-21 15:53N 51°42' W 005°03'0 0.0
2018-Feb-21 15:29N 51°42' W 005°03'0 0.0
2018-Feb-21 14:59N 51°42' W 005°03'0 0.0
2018-Feb-21 14:23N 51°42' W 005°03'0 0.0
2018-Feb-21 13:35N 51°42' W 005°03'0 0.0
2018-Feb-21 13:29N 51°42' W 005°03'0 0.0
2018-Feb-21 12:59N 51°42' W 005°03'0 0.0
2018-Feb-21 12:29N 51°42' W 005°03'0 0.0
2018-Feb-21 11:59N 51°42' W 005°03'0 0.0
2018-Feb-21 11:17N 51°42' W 005°03'0 0.0
2018-Feb-21 10:59N 51°42' W 005°03'0 0.0
2018-Feb-21 10:29N 51°42' W 005°03'0 0.0
2018-Feb-21 09:59N 51°42' W 005°03'0 0.0
2018-Feb-21 09:29N 51°42' W 005°03'0 0.0
2018-Feb-21 08:59N 51°42' W 005°03'0 0.0
2018-Feb-21 08:29N 51°42' W 005°03'0 0.0
2018-Feb-21 07:59N 51°42' W 005°03'0 0.0
2018-Feb-21 07:23N 51°42' W 005°03'0 0.0
2018-Feb-21 06:59N 51°42' W 005°03'0 0.0
2018-Feb-21 06:23N 51°42' W 005°03'0 0.0
2018-Feb-21 05:59N 51°42' W 005°03'0 0.0
2018-Feb-21 05:29N 51°42' W 005°03'0 0.0
2018-Feb-21 04:59N 51°42' W 005°03'0 0.0
2018-Feb-21 04:23N 51°42' W 005°03'0 0.0
2018-Feb-21 03:59N 51°42' W 005°03'0 0.0
2018-Feb-21 03:29N 51°42' W 005°03'0 0.0
2018-Feb-21 02:59N 51°42' W 005°03'0 0.0
2018-Feb-21 02:23N 51°42' W 005°03'0 0.0
2018-Feb-21 01:59N 51°42' W 005°03'0 0.0
2018-Feb-21 01:29N 51°42' W 005°03'0 0.0
2018-Feb-21 00:59N 51°42' W 005°03'0 0.0
2018-Feb-21 00:29N 51°42' W 005°03'0 0.4
2018-Feb-21 00:00N 51°42' W 005°03'2 3.4
2018-Feb-20 23:30N 51°42' W 005°06'4 7.6
2018-Feb-20 23:00N 51°39' W 005°11'4 7.6
2018-Feb-20 22:30N 51°37' W 005°16'4 7.4
2018-Feb-20 22:00N 51°40' W 005°21'4 7.3
2018-Feb-20 21:30N 51°43' W 005°22'4 7.1
2018-Feb-20 20:56N 51°47' W 005°19'1 0.2
2018-Feb-20 13:38N 51°47' W 005°17'0 0.1
2018-Feb-20 13:25N 51°47' W 005°17'0 0.0
2018-Feb-19 23:50N 51°47' W 005°17'0 0.2
2018-Feb-19 23:29N 51°47' W 005°17'2 3.3
2018-Feb-19 23:01N 51°47' W 005°20'510.1
2018-Feb-19 22:30N 51°43' W 005°24'613.0
2018-Feb-19 22:00N 51°36' W 005°25'713.3
2018-Feb-19 21:31N 51°30' W 005°24'712.9
2018-Feb-19 21:00N 51°23' W 005°24'612.6
2018-Feb-19 20:30N 51°17' W 005°25'612.8
2018-Feb-19 20:00N 51°11' W 005°28'612.8
2018-Feb-19 19:30N 51°05' W 005°31'713.1
2018-Feb-19 19:00N 50°59' W 005°35'713.5
2018-Feb-19 18:30N 50°52' W 005°38'713.4
2018-Feb-19 18:00N 50°46' W 005°42'713.5
2018-Feb-19 17:27N 50°39' W 005°46'613.4
2018-Feb-19 17:00N 50°33' W 005°49'713.4
2018-Feb-19 16:30N 50°27' W 005°52'713.3
2018-Feb-19 16:00N 50°20' W 005°55'713.7
2018-Feb-19 15:30N 50°13' W 005°54'713.2
2018-Feb-19 14:58N 50°06' W 005°55'613.2
2018-Feb-19 14:30N 50°00' W 005°55'1411.4
2018-Feb-19 13:17N 49°50' W 005°40'1612.6
2018-Feb-19 12:00N 49°50' W 005°15'612.2
2018-Feb-19 11:30N 49°50' W 005°05'811.7
2018-Feb-19 10:48N 49°50' W 004°53'511.4
2018-Feb-19 10:24N 49°50' W 004°46'511.1
2018-Feb-19 09:58N 49°51' W 004°38'510.8
2018-Feb-19 09:29N 49°52' W 004°30'510.4
2018-Feb-19 09:00N 49°52' W 004°23'610.0
2018-Feb-19 08:24N 49°53' W 004°13'5 9.7
2018-Feb-19 07:51N 49°53' W 004°05'6 9.5
2018-Feb-19 07:13N 49°54' W 003°56'2 9.6
2018-Feb-19 06:59N 49°54' W 003°52'5 9.8
2018-Feb-19 06:30N 49°55' W 003°45'510.2
2018-Feb-19 06:00N 49°55' W 003°37'510.5
2018-Feb-19 05:30N 49°56' W 003°29'611.4
2018-Feb-19 05:00N 49°56' W 003°20'612.3
2018-Feb-19 04:30N 49°59' W 003°11'613.0
2018-Feb-19 04:00N 49°60' W 003°01'713.7
2018-Feb-19 03:30N 50°01' W 002°51'714.1
2018-Feb-19 03:00N 50°03' W 002°40'714.1
2018-Feb-19 02:30N 50°04' W 002°30'1913.0
2018-Feb-19 01:01N 50°10' W 002°01'012.7
2018-Feb-19 01:00N 50°10' W 002°00'611.2
2018-Feb-19 00:31N 50°11' W 001°52'510.3
2018-Feb-19 00:01N 50°13' W 001°44'5 9.5
2018-Feb-18 23:29N 50°14' W 001°37'4 8.8
2018-Feb-18 23:01N 50°15' W 001°31'4 8.3
2018-Feb-18 22:30N 50°16' W 001°24'5 8.0
2018-Feb-18 21:55N 50°18' W 001°17'4 7.9
2018-Feb-18 21:28N 50°18' W 001°12'3410.5
2018-Feb-18 18:15N 50°28' W 000°21'312.9
2018-Feb-18 18:00N 50°29' W 000°16'713.1
2018-Feb-18 17:30N 50°30' W 000°06'713.2
2018-Feb-18 17:00N 50°32' E 000°04'713.2
2018-Feb-18 16:30N 50°34' E 000°14'613.0
2018-Feb-18 16:00N 50°36' E 000°24'612.6
2018-Feb-18 15:30N 50°38' E 000°33'611.9
2018-Feb-18 15:00N 50°41' E 000°41'611.3
2018-Feb-18 14:30N 50°45' E 000°48'510.5
2018-Feb-18 14:00N 50°48' E 000°55'5 9.9
2018-Feb-18 13:30N 50°51' E 001°01'7 9.5
2018-Feb-18 12:48N 50°55' E 001°09'3 9.5
2018-Feb-18 12:26N 50°57' E 001°14'5 9.5
2018-Feb-18 11:57N 51°00' E 001°19'510.1
2018-Feb-18 11:30N 51°03' E 001°25'611.8
2018-Feb-18 11:00N 51°07' E 001°32'713.0
2018-Feb-18 10:30N 51°11' E 001°40'713.8
2018-Feb-18 10:01N 51°16' E 001°47'714.6
2018-Feb-18 09:31N 51°22' E 001°52'714.2
2018-Feb-18 09:00N 51°29' E 001°58'713.0
2018-Feb-18 08:29N 51°34' E 002°05'612.8
2018-Feb-18 08:00N 51°38' E 002°12'612.4
2018-Feb-18 07:30N 51°43' E 002°18'611.8
2018-Feb-18 06:59N 51°47' E 002°25'611.1
2018-Feb-18 06:29N 51°52' E 002°31'610.6
2018-Feb-18 05:57N 51°57' E 002°33'17811.1
2018-Feb-17 13:52N 54°34' E 004°55'511.7
2018-Feb-17 13:28N 54°38' E 004°59'511.7
2018-Feb-17 13:00N 54°42' E 005°03'611.7
2018-Feb-17 12:30N 54°47' E 005°08'611.5
2018-Feb-17 12:00N 54°52' E 005°13'611.4
2018-Feb-17 11:30N 54°57' E 005°18'24810.1
2018-Feb-16 10:53N 57°50' E 010°41'3 8.8
2018-Feb-16 10:31N 57°48' E 010°46'5 9.2
2018-Feb-16 10:01N 57°45' E 010°52'611.8
2018-Feb-16 09:31N 57°41' E 011°00'611.9
2018-Feb-16 09:00N 57°37' E 011°08'612.3
2018-Feb-16 08:30N 57°32' E 011°16'612.6
2018-Feb-16 08:00N 57°28' E 011°25'612.5
2018-Feb-16 07:30N 57°22' E 011°29'611.5
2018-Feb-16 07:00N 57°17' E 011°33'611.1
2018-Feb-16 06:30N 57°12' E 011°36'510.8
2018-Feb-16 06:00N 57°07' E 011°40'611.2
2018-Feb-16 05:30N 57°01' E 011°43'  

Dump ship's entire track history